Time;durP1;ratioP1;P1;durP2;ratioP2;P2;SDS_P1;SDS_P2;PMS_P1;PMS_P2;Temp;Humidity;BMP_temperature;BMP_pressure;BME280_temperature;BME280_humidity;BME280_pressure;Samples;Min_cycle;Max_cycle;Signal;HPM_P1;HPM_P2
2024/03/18 16:19:15;;;;;;;;;;;5.30;99.90;;;;;;5033728;28;19917;-94
2024/03/18 16:21:41;;;;;;;;;;;5.30;99.90;;;;;;5040815;28;19956;-96
2024/03/18 16:24:06;;;;;;;;;;;5.30;99.90;;;;;;5045841;28;19909;-93
2024/03/18 16:26:32;;;;;;;;;;;5.30;99.90;;;;;;5050543;28;19913;-93
2024/03/18 16:28:57;;;;;;;;;;;5.40;99.90;;;;;;5051736;28;19913;-94
2024/03/18 16:31:23;;;;;;;;;;;5.40;99.90;;;;;;5050196;28;19920;-96
2024/03/18 16:33:49;;;;;;;;;;;5.40;99.90;;;;;;5041222;28;19998;-94
2024/03/18 16:36:15;;;;;;;;;;;5.50;99.90;;;;;;5036971;28;19908;-93
2024/03/18 16:38:41;;;;;;;;;;;5.50;99.90;;;;;;5050951;28;19921;-94
2024/03/18 16:41:06;;;;;;;;;;;5.50;99.90;;;;;;5034621;28;20317;-95
2024/03/18 16:43:32;;;;;;;;;;;5.50;99.90;;;;;;5030577;28;19910;-93
2024/03/18 16:46:00;;;;;;;;;;;5.50;99.90;;;;;;5029135;28;19924;-90
2024/03/18 16:48:25;;;;;;;;;;;5.50;99.90;;;;;;5026149;28;19925;-96
2024/03/18 16:50:53;;;;;;;;;;;5.50;99.90;;;;;;5031130;28;19944;-96
2024/03/18 16:53:18;;;;;;;;;;;5.50;99.90;;;;;;5039461;28;19909;-96
2024/03/18 16:55:44;;;;;;;;;;;5.40;99.90;;;;;;5038200;28;19909;-96
2024/03/18 16:58:11;;;;;;;;;;;5.40;99.90;;;;;;5046826;28;19921;-96
2024/03/18 17:00:39;;;;;;;;;;;5.30;99.90;;;;;;5042315;28;19914;-92
2024/03/18 17:03:08;;;;;;;;;;;5.20;99.90;;;;;;5029959;28;19939;-92
2024/03/18 17:05:34;;;;;;;;;;;5.20;99.90;;;;;;5032027;28;19910;-94
2024/03/18 17:07:59;;;;;;;;;;;5.10;99.90;;;;;;5033755;28;19924;-94
2024/03/18 17:10:26;;;;;;;;;;;5.00;99.90;;;;;;5030135;28;19913;-95
2024/03/18 17:12:55;;;;;;;;;;;5.00;99.90;;;;;;5029255;28;20346;-92
2024/03/18 17:15:21;;;;;;;;;;;4.90;99.90;;;;;;5030281;28;19968;-92
2024/03/18 17:17:47;;;;;;;;;;;4.80;99.90;;;;;;5038843;28;19973;-91
2024/03/18 17:20:13;;;;;;;;;;;4.80;99.90;;;;;;5073386;28;19913;-94
2024/03/18 17:22:41;;;;;;;;;;;4.70;99.90;;;;;;5049424;28;20349;-93
2024/03/18 17:25:11;;;;;;;;;;;4.60;99.90;;;;;;5046722;28;19909;-93
2024/03/18 17:27:37;;;;;;;;;;;4.60;99.90;;;;;;5062741;28;19917;-94
2024/03/18 17:30:03;;;;;;;;;;;4.50;99.90;;;;;;5038546;28;19909;-94
2024/03/18 17:32:28;;;;;;;;;;;4.40;99.90;;;;;;5048392;28;20015;-93
2024/03/18 17:34:59;;;;;;;;;;;4.40;99.90;;;;;;5036251;28;19932;-93
2024/03/18 17:37:25;;;;;;;;;;;4.40;99.90;;;;;;5036286;28;20427;-94
2024/03/18 17:39:51;;;;;;;;;;;4.30;99.90;;;;;;5033737;28;19917;-89
2024/03/18 17:45:35;;;;;;;;;;;4.20;99.90;;;;;;4970665;28;19914;-92
2024/03/18 17:48:01;;;;;;;;;;;4.10;99.90;;;;;;4987359;28;19922;-92
2024/03/18 17:53:49;;;;;;;;;;;4.00;99.90;;;;;;4974726;28;19976;-91
2024/03/18 17:59:29;;;;;;;;;;;3.80;99.90;;;;;;4984801;28;19914;-93
2024/03/18 18:02:36;;;;;;;;;;;3.80;99.90;;;;;;4972414;28;19935;-93
2024/03/18 18:05:02;;;;;;;;;;;3.70;99.90;;;;;;5049184;28;19920;-92
2024/03/18 18:07:30;;;;;;;;;;;3.70;99.90;;;;;;5027499;28;20290;-92
2024/03/18 18:13:13;;;;;;;;;;;3.60;99.90;;;;;;5035013;28;19909;-92
2024/03/18 18:16:18;;;;;;;;;;;3.60;99.90;;;;;;5047699;28;20281;-90
2024/03/18 18:19:18;;;;;;;;;;;3.50;99.90;;;;;;5066968;28;19944;-91
2024/03/18 18:21:43;;;;;;;;;;;3.50;99.90;;;;;;5035139;28;20254;-91
2024/03/18 18:24:28;;;;;;;;;;;3.50;99.90;;;;;;5036704;28;19913;-90
2024/03/18 18:26:56;;;;;;;;;;;3.40;99.90;;;;;;5036898;28;19913;-91
2024/03/18 18:29:21;;;;;;;;;;;3.40;99.90;;;;;;5034064;28;19920;-91
2024/03/18 18:32:22;;;;;;;;;;;;;;;;;;;;;
2024/03/18 18:34:50;;;;;;;;;;;3.40;99.90;;;;;;5027523;28;19935;-90
2024/03/18 18:37:16;;;;;;;;;;;3.30;99.90;;;;;;5035318;28;19936;-91
2024/03/18 18:39:44;;;;;;;;;;;3.30;99.90;;;;;;5035237;28;20286;-92
2024/03/18 18:42:13;;;;;;;;;;;3.30;99.90;;;;;;5034064;28;19932;-91
2024/03/18 18:44:38;;;;;;;;;;;3.30;99.90;;;;;;5035850;28;19955;-93
2024/03/18 18:47:04;;;;;;;;;;;3.30;99.90;;;;;;5034369;28;20027;-94
2024/03/18 18:49:37;;;;;;;;;;;3.20;99.90;;;;;;5036111;28;19909;-91
2024/03/18 18:55:23;;;;;;;;;;;3.20;99.90;;;;;;5028996;28;19917;-93
2024/03/18 18:57:49;;;;;;;;;;;3.20;99.90;;;;;;5035247;28;21204;-90
2024/03/18 19:00:16;;;;;;;;;;;3.10;99.90;;;;;;5035603;28;19916;-91
2024/03/18 19:02:42;;;;;;;;;;;3.10;99.90;;;;;;5035341;28;20016;-90
2024/03/18 19:05:08;;;;;;;;;;;3.10;99.90;;;;;;5034651;28;20417;-93
2024/03/18 19:07:34;;;;;;;;;;;3.10;99.90;;;;;;5034508;28;19917;-92
2024/03/18 19:10:00;;;;;;;;;;;3.00;99.90;;;;;;5035088;28;20269;-90
2024/03/18 19:12:25;;;;;;;;;;;3.00;99.90;;;;;;5033816;28;20269;-91
2024/03/18 19:14:51;;;;;;;;;;;3.00;99.90;;;;;;5034819;28;20312;-92
2024/03/18 19:17:22;;;;;;;;;;;3.00;99.90;;;;;;5033715;28;20250;-91
2024/03/18 19:19:55;;;;;;;;;;;3.00;99.90;;;;;;5033251;28;19925;-93
2024/03/18 19:25:37;;;;;;;;;;;2.90;99.90;;;;;;5046600;28;19928;-92
2024/03/18 19:28:06;;;;;;;;;;;2.90;99.90;;;;;;5080366;28;19917;-92
2024/03/18 19:30:37;;;;;;;;;;;2.90;99.90;;;;;;5040738;28;19913;-92
2024/03/18 19:33:03;;;;;;;;;;;2.80;99.90;;;;;;5029099;28;19939;-92
2024/03/18 19:35:29;;;;;;;;;;;2.80;99.90;;;;;;5030449;28;19913;-94
2024/03/18 19:37:55;;;;;;;;;;;2.80;99.90;;;;;;5036791;28;19924;-91
2024/03/18 19:40:20;;;;;;;;;;;2.90;99.90;;;;;;5034252;28;19921;-92
2024/03/18 19:42:46;;;;;;;;;;;2.80;99.90;;;;;;5034234;28;19948;-91
2024/03/18 19:45:12;;;;;;;;;;;2.90;99.90;;;;;;5038397;28;19909;-95
2024/03/18 19:48:06;;;;;;;;;;;2.90;99.90;;;;;;5035194;28;19913;-95
2024/03/18 19:50:32;;;;;;;;;;;2.80;99.90;;;;;;5036900;28;19913;-96
2024/03/18 19:53:00;;;;;;;;;;;2.80;99.90;;;;;;5035394;28;19917;-94
2024/03/18 19:55:26;;;;;;;;;;;2.80;99.90;;;;;;5050843;28;19962;-90
2024/03/18 19:57:51;;;;;;;;;;;2.70;99.90;;;;;;5052358;28;19913;-94
2024/03/18 20:00:17;;;;;;;;;;;2.70;99.90;;;;;;5033796;28;19909;-94
